createdAt,value
2017-10-15T00:02:05.145Z,61.20
2017-10-15T00:04:33.753Z,61.30
2017-10-15T00:07:01.633Z,61.30
2017-10-15T00:09:29.700Z,61.60
2017-10-15T00:11:57.536Z,62.00
2017-10-15T00:14:26.168Z,62.30
2017-10-15T00:16:54.096Z,62.20
2017-10-15T00:19:21.976Z,62.50
2017-10-15T00:21:49.815Z,62.20
2017-10-15T00:24:18.501Z,62.20
2017-10-15T00:26:47.198Z,62.10
2017-10-15T00:29:15.226Z,62.10
2017-10-15T00:31:43.090Z,62.20
2017-10-15T00:34:10.961Z,62.00
2017-10-15T00:36:38.838Z,61.80
2017-10-15T00:39:06.699Z,62.00
2017-10-15T00:41:34.591Z,61.70
2017-10-15T00:44:03.239Z,61.90
2017-10-15T00:46:31.119Z,62.00
2017-10-15T00:48:58.977Z,62.20
2017-10-15T00:51:26.854Z,62.20
2017-10-15T00:53:54.759Z,62.30
2017-10-15T00:56:22.725Z,62.10
2017-10-15T00:58:50.683Z,62.10
2017-10-15T01:01:19.338Z,62.00
2017-10-15T01:03:47.364Z,62.00
2017-10-15T01:06:15.264Z,62.00
2017-10-15T01:08:43.126Z,61.90
2017-10-15T01:11:10.971Z,61.80
2017-10-15T01:13:38.840Z,62.00
2017-10-15T01:16:06.733Z,62.00
2017-10-15T01:18:34.663Z,62.10
2017-10-15T01:21:02.619Z,62.20
2017-10-15T01:23:30.564Z,62.20
2017-10-15T01:25:59.235Z,62.20
2017-10-15T01:28:27.192Z,62.20
2017-10-15T01:30:55.147Z,62.10
2017-10-15T01:33:23.116Z,62.10
2017-10-15T01:35:51.087Z,62.30
2017-10-15T01:38:19.084Z,62.40
2017-10-15T01:40:47.120Z,62.30
2017-10-15T01:43:15.072Z,62.40
2017-10-15T01:45:43.046Z,62.50
2017-10-15T01:48:11.010Z,62.60
2017-10-15T01:50:38.927Z,62.60
2017-10-15T01:53:06.802Z,62.50
2017-10-15T01:55:35.563Z,62.00
2017-10-15T01:58:03.491Z,62.00
2017-10-15T02:00:31.459Z,61.60
2017-10-15T02:02:59.361Z,61.40
2017-10-15T02:05:27.233Z,61.30
2017-10-15T02:07:55.101Z,60.80
2017-10-15T02:10:23.015Z,60.50
2017-10-15T02:12:50.924Z,59.40
2017-10-15T02:15:18.974Z,58.10
2017-10-15T02:17:46.913Z,57.50
2017-10-15T02:20:14.842Z,56.40
2017-10-15T02:22:42.789Z,56.00
2017-10-15T02:25:10.657Z,56.20
2017-10-15T02:27:38.516Z,54.00
2017-10-15T02:30:06.391Z,53.90
2017-10-15T02:32:34.257Z,54.50
2017-10-15T02:35:02.120Z,54.00
2017-10-15T02:37:29.951Z,53.70
2017-10-15T02:39:57.825Z,53.50
2017-10-15T02:42:25.680Z,52.90
2017-10-15T02:44:54.406Z,51.40
2017-10-15T02:47:22.309Z,51.40
2017-10-15T02:49:50.205Z,50.70
2017-10-15T02:52:18.079Z,50.70
2017-10-15T02:54:45.953Z,50.40
2017-10-15T02:57:13.857Z,50.70
2017-10-15T02:59:41.707Z,50.60
2017-10-15T03:02:09.549Z,50.20
2017-10-15T03:04:37.419Z,50.30
2017-10-15T03:07:05.355Z,50.50
2017-10-15T03:09:34.009Z,52.00
2017-10-15T03:12:01.900Z,52.10
2017-10-15T03:14:30.519Z,51.90
2017-10-15T03:16:58.371Z,51.20
2017-10-15T03:19:27.034Z,51.20
2017-10-15T03:21:54.896Z,51.20
2017-10-15T03:24:22.748Z,51.30
2017-10-15T03:26:50.624Z,51.30
2017-10-15T03:29:18.569Z,50.00
2017-10-15T03:31:46.461Z,50.20
2017-10-15T03:34:14.376Z,50.80
2017-10-15T03:36:42.995Z,51.40
2017-10-15T03:39:10.846Z,51.40
2017-10-15T03:41:38.724Z,52.00
2017-10-15T03:44:06.590Z,52.50
2017-10-15T03:46:34.476Z,52.50
2017-10-15T03:49:02.368Z,52.40
2017-10-15T03:51:31.016Z,52.30
2017-10-15T03:53:58.884Z,52.20
2017-10-15T03:56:26.753Z,52.10
2017-10-15T03:58:54.661Z,51.90
2017-10-15T04:01:22.542Z,52.00
2017-10-15T04:03:50.432Z,52.10
2017-10-15T04:06:18.289Z,51.50
2017-10-15T04:08:46.140Z,51.00
2017-10-15T04:11:14.033Z,51.00
2017-10-15T04:13:41.917Z,50.40
2017-10-15T04:16:09.805Z,50.20
2017-10-15T04:18:37.739Z,50.00
2017-10-15T04:21:05.669Z,50.20
2017-10-15T04:23:33.549Z,50.10
2017-10-15T04:26:01.401Z,49.80
2017-10-15T04:28:29.256Z,49.70
2017-10-15T04:30:57.902Z,49.60
2017-10-15T04:33:25.752Z,49.60
2017-10-15T04:35:53.613Z,49.60
2017-10-15T04:38:21.454Z,49.30
2017-10-15T04:40:49.480Z,49.60
2017-10-15T04:43:17.323Z,49.40
2017-10-15T04:45:45.178Z,46.00
2017-10-15T04:48:13.055Z,45.40
2017-10-15T04:50:40.924Z,45.70
2017-10-15T04:53:08.808Z,46.80
2017-10-15T04:55:36.674Z,45.50
2017-10-15T04:58:04.555Z,45.50
2017-10-15T05:00:32.433Z,44.50
2017-10-15T05:03:01.053Z,42.60
2017-10-15T05:05:28.915Z,42.60
2017-10-15T05:07:56.766Z,41.00
2017-10-15T05:10:24.604Z,39.40
2017-10-15T05:12:52.503Z,39.70
2017-10-15T05:15:20.344Z,40.90
2017-10-15T05:17:49.029Z,40.70
2017-10-15T05:20:17.841Z,42.30
2017-10-15T05:22:45.705Z,42.20
2017-10-15T05:25:13.584Z,41.90
2017-10-15T05:27:41.434Z,42.20
2017-10-15T05:30:09.297Z,41.80
2017-10-15T05:32:37.988Z,41.30
2017-10-15T05:35:05.865Z,41.30
2017-10-15T05:37:33.776Z,41.10
2017-10-15T05:40:01.659Z,40.80
2017-10-15T05:42:29.583Z,39.70
2017-10-15T05:44:57.426Z,40.00
2017-10-15T05:47:25.279Z,40.80
2017-10-15T05:49:53.936Z,40.40
2017-10-15T05:52:21.872Z,40.30
2017-10-15T05:54:49.814Z,40.60
2017-10-15T05:57:17.785Z,40.70
2017-10-15T05:59:45.622Z,40.00
2017-10-15T06:02:14.258Z,41.10
2017-10-15T06:04:42.187Z,41.00
2017-10-15T06:07:10.065Z,40.60
2017-10-15T06:09:38.007Z,40.50
2017-10-15T06:12:06.648Z,41.20
2017-10-15T06:14:35.364Z,40.70
2017-10-15T06:17:03.295Z,40.70
2017-10-15T06:19:31.976Z,41.00
2017-10-15T06:21:59.870Z,41.00
2017-10-15T06:24:27.712Z,40.20
2017-10-15T06:26:55.589Z,40.30
2017-10-15T06:29:23.512Z,40.40
2017-10-15T06:31:51.507Z,39.60
2017-10-15T06:34:19.427Z,40.10
2017-10-15T06:36:48.024Z,39.80
2017-10-15T06:42:18.982Z,39.80
2017-10-15T06:44:47.643Z,39.90
2017-10-15T06:47:16.431Z,40.00
2017-10-15T06:49:44.377Z,40.00
2017-10-15T06:52:12.216Z,39.70
2017-10-15T06:54:40.112Z,39.80
2017-10-15T06:57:08.090Z,40.10
2017-10-15T06:59:35.969Z,40.40
2017-10-15T07:02:04.028Z,39.70
2017-10-15T07:04:31.854Z,39.40
2017-10-15T07:06:59.681Z,40.10
2017-10-15T07:09:28.269Z,39.40
2017-10-15T07:11:56.239Z,38.80
2017-10-15T07:14:24.821Z,39.10
2017-10-15T07:16:53.442Z,39.30
2017-10-15T07:19:21.307Z,39.30
2017-10-15T07:21:49.209Z,38.90
2017-10-15T07:24:17.050Z,36.80
2017-10-15T07:26:45.059Z,37.30
2017-10-15T07:29:13.008Z,37.10
2017-10-15T07:31:40.908Z,36.70
2017-10-15T07:34:09.512Z,35.30
2017-10-15T07:36:37.461Z,35.20
2017-10-15T07:39:06.130Z,35.40
2017-10-15T07:41:34.055Z,35.40
2017-10-15T07:44:02.011Z,35.50
2017-10-15T07:46:29.907Z,34.50
2017-10-15T07:48:57.892Z,34.10
2017-10-15T07:51:25.717Z,34.40
2017-10-15T07:53:54.127Z,34.10
2017-10-15T07:56:22.366Z,34.20
2017-10-15T07:58:50.370Z,33.20
2017-10-15T08:01:18.249Z,33.30
2017-10-15T08:03:46.400Z,33.20
2017-10-15T08:06:14.223Z,34.20
2017-10-15T08:08:42.813Z,33.40
2017-10-15T08:11:11.385Z,34.00
2017-10-15T08:13:40.091Z,34.50
2017-10-15T08:16:08.015Z,34.50
2017-10-15T08:18:35.951Z,33.80
2017-10-15T08:21:03.935Z,33.70
2017-10-15T08:23:31.836Z,34.20
2017-10-15T08:26:00.967Z,35.80
2017-10-15T08:28:32.198Z,34.30
2017-10-15T08:31:00.890Z,34.30
2017-10-15T08:33:33.607Z,33.00
2017-10-15T08:36:02.140Z,33.80
2017-10-15T08:38:30.143Z,33.30
2017-10-15T08:40:58.052Z,32.20
2017-10-15T08:43:26.018Z,32.50
2017-10-15T08:45:54.146Z,31.50
2017-10-15T08:48:21.992Z,34.20
2017-10-15T08:50:49.876Z,32.80
2017-10-15T08:53:18.511Z,31.20
2017-10-15T08:55:46.355Z,31.20
2017-10-15T08:58:14.280Z,30.90
2017-10-15T09:00:42.248Z,32.10
2017-10-15T09:03:10.236Z,31.50
2017-10-15T09:05:39.189Z,32.20
2017-10-15T09:08:07.991Z,31.40
2017-10-15T09:10:35.875Z,31.40
2017-10-15T09:13:03.703Z,34.60
2017-10-15T09:15:32.379Z,32.20
2017-10-15T09:18:01.353Z,30.00
2017-10-15T09:20:29.567Z,29.90
2017-10-15T09:22:58.154Z,32.40
2017-10-15T09:25:27.035Z,30.00
2017-10-15T09:27:55.183Z,30.10
2017-10-15T09:30:23.244Z,31.00
2017-10-15T09:32:51.210Z,31.00
2017-10-15T09:35:19.859Z,28.70
2017-10-15T09:37:47.714Z,30.00
2017-10-15T09:40:15.536Z,31.10
2017-10-15T09:42:43.366Z,31.20
2017-10-15T09:45:11.166Z,30.10
2017-10-15T09:47:39.041Z,30.50
2017-10-15T09:50:06.876Z,29.70
2017-10-15T09:52:48.586Z,30.60
2017-10-15T09:55:16.516Z,30.50
2017-10-15T09:57:44.340Z,29.40
2017-10-15T10:00:13.321Z,29.70
2017-10-15T10:02:41.152Z,29.70
2017-10-15T10:05:09.015Z,31.00
2017-10-15T10:07:36.986Z,29.50
2017-10-15T10:10:04.858Z,29.80
2017-10-15T10:12:32.760Z,29.50
2017-10-15T10:15:04.435Z,30.00
2017-10-15T10:17:33.087Z,31.40
2017-10-15T10:20:00.924Z,31.40
2017-10-15T10:22:28.964Z,31.10
2017-10-15T10:24:56.831Z,30.70
2017-10-15T10:27:24.755Z,29.60
2017-10-15T10:29:52.635Z,29.40
2017-10-15T10:32:20.651Z,29.60
2017-10-15T10:34:52.038Z,29.80
2017-10-15T10:37:20.896Z,31.80
2017-10-15T10:39:48.743Z,31.80
2017-10-15T10:42:16.638Z,29.90
2017-10-15T10:44:44.779Z,30.80
2017-10-15T10:47:12.672Z,31.70
2017-10-15T10:49:40.596Z,32.40
2017-10-15T10:52:09.283Z,32.20
2017-10-15T10:54:37.959Z,32.00
2017-10-15T10:57:06.688Z,31.30
2017-10-15T10:59:34.679Z,31.20
2017-10-15T11:02:02.509Z,31.50
2017-10-15T11:04:30.417Z,32.50
2017-10-15T11:06:58.271Z,32.00
2017-10-15T11:09:26.259Z,30.50
2017-10-15T11:11:54.089Z,30.50
2017-10-15T11:14:22.050Z,31.50
2017-10-15T11:16:49.940Z,33.20
2017-10-15T11:19:17.776Z,31.90
2017-10-15T11:21:46.374Z,32.70
2017-10-15T11:24:14.206Z,32.70
2017-10-15T11:26:42.868Z,31.60
2017-10-15T11:29:10.703Z,31.60
2017-10-15T11:31:38.575Z,30.80
2017-10-15T11:34:12.320Z,30.80
2017-10-15T11:36:40.246Z,30.60
2017-10-15T11:39:08.144Z,30.30
2017-10-15T11:41:36.068Z,31.50
2017-10-15T11:44:04.924Z,31.50
2017-10-15T11:46:35.649Z,31.80
2017-10-15T11:49:03.607Z,31.90
2017-10-15T11:51:31.832Z,32.10
2017-10-15T11:53:59.676Z,30.80
2017-10-15T11:56:28.309Z,32.80
2017-10-15T11:58:56.168Z,32.80
2017-10-15T12:01:24.872Z,32.10
2017-10-15T12:03:52.813Z,32.10
2017-10-15T12:06:21.102Z,30.50
2017-10-15T12:08:49.948Z,31.20
2017-10-15T12:11:18.183Z,31.20
2017-10-15T12:13:46.232Z,31.50
2017-10-15T12:16:14.151Z,32.00
2017-10-15T12:18:42.993Z,32.20
2017-10-15T12:21:10.973Z,32.20
2017-10-15T12:23:38.811Z,33.00
2017-10-15T12:26:06.775Z,33.00
2017-10-15T12:28:34.599Z,33.30
2017-10-15T12:31:02.923Z,33.00
2017-10-15T12:33:31.039Z,33.70
2017-10-15T12:35:59.627Z,35.00
2017-10-15T12:38:27.765Z,34.90
2017-10-15T12:40:56.172Z,35.20
2017-10-15T12:43:25.063Z,35.70
2017-10-15T12:45:52.891Z,35.70
2017-10-15T12:48:21.379Z,35.70
2017-10-15T12:50:50.509Z,34.70
2017-10-15T12:53:19.100Z,35.20
2017-10-15T12:55:47.167Z,35.20
2017-10-15T12:58:15.208Z,35.10
2017-10-15T13:00:44.519Z,33.70
2017-10-15T13:03:12.431Z,33.70
2017-10-15T13:05:41.047Z,33.60
2017-10-15T13:08:09.004Z,33.60
2017-10-15T13:10:36.881Z,34.40
2017-10-15T13:13:04.736Z,33.10
2017-10-15T13:15:33.450Z,34.10
2017-10-15T13:18:02.586Z,33.50
2017-10-15T13:20:34.746Z,34.30
2017-10-15T13:23:06.291Z,34.30
2017-10-15T13:25:36.261Z,34.30
2017-10-15T13:28:07.332Z,33.40
2017-10-15T13:30:35.189Z,34.60
2017-10-15T13:33:03.017Z,32.90
2017-10-15T13:35:30.886Z,31.70
2017-10-15T13:37:58.862Z,31.70
2017-10-15T13:40:26.705Z,30.90
2017-10-15T13:42:55.332Z,30.40
2017-10-15T13:45:23.246Z,30.60
2017-10-15T13:47:51.872Z,32.00
2017-10-15T13:50:19.692Z,31.90
2017-10-15T13:52:48.296Z,32.00
2017-10-15T13:55:16.159Z,32.00
2017-10-15T13:57:44.939Z,29.70
2017-10-15T14:00:13.624Z,31.90
2017-10-15T14:02:42.333Z,31.50
2017-10-15T14:05:10.309Z,31.50
2017-10-15T14:07:38.241Z,32.20
2017-10-15T14:10:06.861Z,32.50
2017-10-15T14:12:34.946Z,32.60
2017-10-15T14:15:02.796Z,33.10
2017-10-15T14:17:30.733Z,30.70
2017-10-15T14:19:59.352Z,33.90
2017-10-15T14:22:27.714Z,33.80
2017-10-15T14:24:56.776Z,33.10
2017-10-15T14:27:25.508Z,33.90
2017-10-15T14:29:53.455Z,33.80
2017-10-15T14:32:22.402Z,33.80
2017-10-15T14:34:50.271Z,33.90
2017-10-15T14:37:18.125Z,34.50
2017-10-15T14:39:46.015Z,33.70
2017-10-15T14:42:13.936Z,33.20
2017-10-15T14:44:41.834Z,34.40
2017-10-15T14:47:09.688Z,33.50
2017-10-15T14:49:37.509Z,33.20
2017-10-15T14:52:06.426Z,34.70
2017-10-15T14:54:34.272Z,34.70
2017-10-15T14:57:02.936Z,34.30
2017-10-15T14:59:30.809Z,34.30
2017-10-15T15:01:59.398Z,34.40
2017-10-15T15:04:28.253Z,34.30
2017-10-15T15:06:56.152Z,34.30
2017-10-15T15:09:24.767Z,32.70
2017-10-15T15:11:52.616Z,32.70
2017-10-15T15:14:21.248Z,35.60
2017-10-15T15:16:49.068Z,35.70
2017-10-15T15:19:16.955Z,35.80
2017-10-15T15:21:44.879Z,35.90
2017-10-15T15:24:13.544Z,35.50
2017-10-15T15:26:41.495Z,35.50
2017-10-15T15:29:09.383Z,35.50
2017-10-15T15:31:37.343Z,36.40
2017-10-15T15:34:06.466Z,36.40
2017-10-15T15:36:34.392Z,36.40
2017-10-15T15:39:02.257Z,37.20
2017-10-15T15:41:30.203Z,37.20
2017-10-15T15:43:58.110Z,38.70
2017-10-15T15:46:25.961Z,38.50
2017-10-15T15:48:53.777Z,38.80
2017-10-15T15:51:22.559Z,40.20
2017-10-15T15:53:51.160Z,41.10
2017-10-15T15:56:19.056Z,41.00
2017-10-15T15:58:46.966Z,41.80
2017-10-15T16:01:15.645Z,43.20
2017-10-15T16:03:43.522Z,43.20
2017-10-15T16:06:12.107Z,44.30
2017-10-15T16:08:42.279Z,43.70
2017-10-15T16:11:10.427Z,43.70
2017-10-15T16:13:38.378Z,45.00
2017-10-15T16:16:06.306Z,45.70
2017-10-15T16:18:34.314Z,45.90
2017-10-15T16:21:03.024Z,47.10
2017-10-15T16:23:31.009Z,47.10
2017-10-15T16:25:58.843Z,47.20
2017-10-15T16:28:26.811Z,47.90
2017-10-15T16:30:55.685Z,49.00
2017-10-15T16:33:24.475Z,48.90
2017-10-15T16:35:52.489Z,48.80
2017-10-15T16:38:20.573Z,49.20
2017-10-15T16:40:48.454Z,49.00
2017-10-15T16:43:17.061Z,49.60
2017-10-15T16:45:45.105Z,49.60
2017-10-15T16:48:13.104Z,50.00
2017-10-15T16:50:41.697Z,50.70
2017-10-15T16:53:10.445Z,50.60
2017-10-15T16:55:38.368Z,50.60
2017-10-15T16:58:06.343Z,50.90
2017-10-15T17:00:34.304Z,50.80
2017-10-15T17:03:02.638Z,51.10
2017-10-15T17:05:30.477Z,51.20
2017-10-15T17:07:58.435Z,51.20
2017-10-15T17:10:26.480Z,51.70
2017-10-15T17:12:55.101Z,52.10
2017-10-15T17:15:23.200Z,52.10
2017-10-15T17:17:52.223Z,52.50
2017-10-15T17:20:21.158Z,52.60
2017-10-15T17:22:49.081Z,52.60
2017-10-15T17:25:17.712Z,52.80
2017-10-15T17:27:46.920Z,52.80
2017-10-15T17:30:15.545Z,52.90
2017-10-15T17:32:44.351Z,53.00
2017-10-15T17:35:12.614Z,53.00
2017-10-15T17:37:41.334Z,53.10
2017-10-15T17:40:09.139Z,53.10
2017-10-15T17:42:37.028Z,53.30
2017-10-15T17:45:05.632Z,53.60
2017-10-15T17:47:33.454Z,53.60
2017-10-15T17:50:01.323Z,53.70
2017-10-15T17:52:29.274Z,53.80
2017-10-15T17:54:57.188Z,53.90
2017-10-15T17:57:25.875Z,54.30
2017-10-15T17:59:53.744Z,54.20
2017-10-15T18:02:29.399Z,54.50
2017-10-15T18:04:57.549Z,54.50
2017-10-15T18:07:26.211Z,54.50
2017-10-15T18:09:54.184Z,54.50
2017-10-15T18:12:22.108Z,54.50
2017-10-15T18:14:49.983Z,54.50
2017-10-15T18:17:17.953Z,54.30
2017-10-15T18:19:45.891Z,54.40
2017-10-15T18:22:13.815Z,54.50
2017-10-15T18:24:42.411Z,54.40
2017-10-15T18:27:10.232Z,54.80
2017-10-15T18:29:38.066Z,55.10
2017-10-15T18:32:06.708Z,55.20
2017-10-15T18:34:35.290Z,55.40
2017-10-15T18:37:03.273Z,55.50
2017-10-15T18:39:33.084Z,55.60
2017-10-15T18:42:00.926Z,54.90
2017-10-15T18:44:28.775Z,55.20
2017-10-15T18:46:56.770Z,55.20
2017-10-15T18:49:24.663Z,55.00
2017-10-15T18:51:53.355Z,54.60
2017-10-15T18:54:22.032Z,54.40
2017-10-15T18:56:49.883Z,54.40
2017-10-15T18:59:17.700Z,54.00
2017-10-15T19:01:45.576Z,53.80
2017-10-15T19:04:13.487Z,53.40
2017-10-15T19:06:42.072Z,53.30
2017-10-15T19:09:09.958Z,53.30
2017-10-15T19:11:38.106Z,53.10
2017-10-15T19:14:05.927Z,53.00
2017-10-15T19:16:33.712Z,53.10
2017-10-15T19:19:01.732Z,53.30
2017-10-15T19:21:30.332Z,52.80
2017-10-15T19:23:58.892Z,52.60
2017-10-15T19:26:27.602Z,52.70
2017-10-15T19:28:56.177Z,52.50
2017-10-15T19:31:24.729Z,52.50
2017-10-15T19:33:52.740Z,52.50
2017-10-15T19:36:20.527Z,52.20
2017-10-15T19:38:48.391Z,51.40
2017-10-15T19:41:16.282Z,51.70
2017-10-15T19:43:44.084Z,51.40
2017-10-15T19:46:12.723Z,50.70
2017-10-15T19:48:42.013Z,50.60
2017-10-15T19:51:10.675Z,50.90
2017-10-15T19:53:38.581Z,51.10
2017-10-15T19:56:07.557Z,50.90
2017-10-15T19:58:35.360Z,50.80
2017-10-15T20:01:03.306Z,51.10
2017-10-15T20:03:31.133Z,51.00
2017-10-15T20:05:58.954Z,51.10
2017-10-15T20:08:26.739Z,51.10
2017-10-15T20:10:56.217Z,50.60
2017-10-15T20:13:24.126Z,50.60
2017-10-15T20:15:52.784Z,51.00
2017-10-15T20:18:21.676Z,51.00
2017-10-15T20:20:51.534Z,51.20
2017-10-15T20:23:19.525Z,51.50
2017-10-15T20:25:47.344Z,51.60
2017-10-15T20:28:16.040Z,51.60
2017-10-15T20:30:44.629Z,51.60
2017-10-15T20:33:12.462Z,52.20
2017-10-15T20:35:40.235Z,51.80
2017-10-15T20:38:11.345Z,51.20
2017-10-15T20:40:43.299Z,51.20
2017-10-15T20:43:14.355Z,51.10
2017-10-15T20:45:42.227Z,51.30
2017-10-15T20:48:11.100Z,51.40
2017-10-15T20:50:39.601Z,51.40
2017-10-15T20:53:08.220Z,50.50
2017-10-15T20:55:36.128Z,50.50
2017-10-15T20:58:05.049Z,50.70
2017-10-15T21:00:33.929Z,50.50
2017-10-15T21:03:17.179Z,50.50
2017-10-15T21:05:46.713Z,50.50
2017-10-15T21:08:14.528Z,50.60
2017-10-15T21:10:42.316Z,50.60
2017-10-15T21:13:12.215Z,50.80
2017-10-15T21:15:40.103Z,50.70
2017-10-15T21:18:08.752Z,51.70
2017-10-15T21:20:36.553Z,51.00
2017-10-15T21:23:05.288Z,51.50
2017-10-15T21:25:33.091Z,51.40
2017-10-15T21:28:01.705Z,51.50
2017-10-15T21:30:30.414Z,51.40
2017-10-15T21:32:58.200Z,51.70
2017-10-15T21:35:26.022Z,51.20
2017-10-15T21:37:54.023Z,50.60
2017-10-15T21:40:21.858Z,50.80
2017-10-15T21:42:50.141Z,50.90
2017-10-15T21:45:17.992Z,50.90
2017-10-15T21:47:45.801Z,51.00
2017-10-15T21:50:13.692Z,51.20
2017-10-15T21:52:41.777Z,51.30
2017-10-15T21:55:10.325Z,51.70
2017-10-15T21:57:38.535Z,51.70
2017-10-15T22:00:07.123Z,51.20
2017-10-15T22:02:36.300Z,51.30
2017-10-15T22:05:04.129Z,51.20
2017-10-15T22:07:32.062Z,52.00
2017-10-15T22:10:00.641Z,52.00
2017-10-15T22:12:29.198Z,52.20
2017-10-15T22:14:57.025Z,52.20
2017-10-15T22:17:24.845Z,52.40
2017-10-15T22:19:53.438Z,52.60
2017-10-15T22:22:25.529Z,52.60
2017-10-15T22:24:53.458Z,52.70
2017-10-15T22:27:22.151Z,52.80
2017-10-15T22:29:50.734Z,52.70
2017-10-15T22:32:19.402Z,52.70
2017-10-15T22:34:47.995Z,52.70
2017-10-15T22:37:16.605Z,52.70
2017-10-15T22:39:44.440Z,52.60
2017-10-15T22:42:13.135Z,52.70
2017-10-15T22:44:42.213Z,52.60
2017-10-15T22:47:10.126Z,52.70
2017-10-15T22:49:38.877Z,52.40
2017-10-15T22:52:07.501Z,52.20
2017-10-15T22:54:35.403Z,52.20
2017-10-15T22:57:03.311Z,52.30
2017-10-15T22:59:31.164Z,52.40
2017-10-15T23:01:59.769Z,52.70
2017-10-15T23:04:27.628Z,52.60
2017-10-15T23:06:55.502Z,52.50
2017-10-15T23:09:23.338Z,52.60
2017-10-15T23:11:52.067Z,52.60
2017-10-15T23:14:19.903Z,52.60
2017-10-15T23:16:48.558Z,52.80
2017-10-15T23:19:16.420Z,52.80
2017-10-15T23:21:44.340Z,52.80
2017-10-15T23:24:12.384Z,53.00
2017-10-15T23:26:40.279Z,52.80
2017-10-15T23:29:08.389Z,52.90
2017-10-15T23:31:36.235Z,53.00
2017-10-15T23:34:04.319Z,53.00
2017-10-15T23:36:32.266Z,53.20
2017-10-15T23:39:00.077Z,53.30
2017-10-15T23:41:27.971Z,53.50
2017-10-15T23:43:56.819Z,53.40
2017-10-15T23:46:24.739Z,53.40
2017-10-15T23:48:52.567Z,53.40
2017-10-15T23:51:20.485Z,53.50
2017-10-15T23:53:48.335Z,53.30
2017-10-15T23:56:16.220Z,53.30
2017-10-15T23:58:44.346Z,53.50
